Date,TemperatureHighF,TemperatureAvgF,TemperatureLowF,DewpointHighF,DewpointAvgF,DewpointLowF,HumidityHigh,HumidityAvg,HumidityLow,PressureMaxIn,PressureMinIn,WindSpeedMaxMPH,WindSpeedAvgMPH,GustSpeedMaxMPH,PrecipitationSumIn
2013-1-1,35,27,17,35,23,12,99,83,73,30.14,29.91,8,1,12,0.00
2013-1-2,40,25,13,24,17,8,84,71,50,30.14,30.03,7,1,9,0.00
2013-1-3,49,32,19,30,21,9,84,67,33,30.30,30.12,4,1,7,0.00
2013-1-4,50,33,17,27,20,11,85,61,31,30.31,30.16,9,2,11,0.00
2013-1-5,46,38,28,32,27,20,77,66,54,30.16,30.00,9,2,14,0.00
2013-1-6,50,33,21,26,19,14,81,59,26,30.25,30.09,7,1,10,0.00
2013-1-7,57,36,18,28,21,11,83,57,26,30.21,29.96,11,2,18,0.00
2013-1-8,60,45,33,46,32,22,99,64,34,30.07,29.89,9,2,15,0.00
2013-1-9,58,51,43,46,41,36,99,72,46,30.21,30.06,11,3,15,0.00
2013-1-10,58,52,47,55,46,33,99,84,45,30.06,29.65,13,4,18,0.00
2013-1-11,68,58,46,48,44,42,92,64,40,29.71,29.54,18,6,24,0.00
2013-1-12,62,39,25,47,28,15,89,65,23,29.91,29.64,12,4,18,0.00
2013-1-13,31,23,15,18,13,8,81,65,52,30.24,29.88,0,0,0,0.00
2013-1-14,34,22,12,15,11,6,78,63,43,30.34,30.20,0,0,0,0.00
2013-1-15,35,26,17,16,11,5,75,55,30,30.20,30.05,0,0,0,0.00
2013-1-16,47,27,13,23,12,6,77,58,20,30.06,29.95,10,1,14,0.00
2013-1-17,53,35,23,31,23,14,83,62,34,30.33,30.04,11,2,18,0.00
2013-1-18,58,42,24,30,26,19,85,55,29,30.34,30.02,13,4,22,0.00
2013-1-19,65,50,35,36,32,28,85,52,31,30.07,29.92,12,4,18,0.00
2013-1-20,63,42,28,30,23,10,72,49,18,30.18,30.01,12,3,16,0.00
2013-1-21,41,29,22,13,9,2,59,44,24,30.27,30.16,10,3,16,0.00
2013-1-22,48,30,18,23,16,8,77,57,34,30.20,30.04,5,1,8,0.00
2013-1-23,62,38,20,38,26,16,84,65,39,30.11,30.00,7,1,9,0.00
2013-1-24,38,36,32,20,15,7,50,42,31,30.20,29.98,10,4,15,0.00
2013-1-25,51,39,32,26,23,19,70,53,33,30.13,29.96,8,1,9,0.00
2013-1-26,60,38,30,35,24,12,81,62,15,30.14,30.07,6,1,9,0.00
2013-1-27,62,56,47,56,48,21,84,75,32,29.97,29.72,15,6,24,0.00
2013-1-28,76,68,60,62,60,55,84,75,56,29.78,29.61,18,7,23,0.00
2013-1-29,72,58,42,62,54,41,99,86,68,29.62,29.33,16,6,22,0.00
2013-1-30,42,32,24,42,25,15,99,74,58,29.92,29.42,15,6,24,0.00
2013-1-31,44,27,17,28,16,-1,85,63,36,30.33,29.84,14,3,21,0.00
2013-2-1,46,26,13,18,4,-5,70,42,17,30.33,30.03,6,2,10,0.00
2013-2-2,58,40,22,32,25,15,76,56,33,30.11,30.01,9,2,12,0.00
2013-2-3,58,46,33,29,23,8,70,44,15,30.15,29.79,9,2,12,0.00
2013-2-4,67,53,36,40,32,24,79,47,23,29.83,29.67,10,3,15,0.00
2013-2-5,67,44,26,42,31,24,94,65,23,29.93,29.78,9,1,13,0.00
2013-2-6,70,51,30,42,35,28,92,59,30,29.93,29.77,10,3,15,0.00
2013-2-7,54,50,38,53,46,36,99,87,65,30.00,29.71,11,3,18,0.00
2013-2-8,54,41,33,36,31,28,91,71,43,30.16,30.00,9,3,15,0.00
2013-2-9,50,42,36,43,34,28,92,72,43,30.04,29.63,9,4,15,0.00
2013-2-10,62,52,39,51,35,18,99,58,19,29.91,29.46,16,7,23,0.00
2013-2-11,57,40,27,28,24,17,86,56,23,30.06,29.90,6,1,11,0.00
2013-2-12,44,35,28,35,29,24,99,80,54,30.01,29.81,8,1,12,0.00
2013-2-13,54,42,32,36,32,28,99,73,42,29.87,29.77,9,4,14,0.00
2013-2-14,59,46,32,35,28,22,72,52,31,30.05,29.78,6,2,9,0.00
2013-2-15,44,35,24,30,15,3,76,49,19,30.23,30.05,10,3,14,0.00
2013-2-16,41,33,24,26,17,11,90,55,34,30.20,29.93,10,3,14,0.00
2013-2-17,70,50,33,28,20,11,50,32,11,29.96,29.62,11,4,19,0.00
2013-2-18,61,52,30,51,37,22,76,57,29,30.01,29.46,21,8,31,0.00
2013-2-19,50,34,23,22,16,7,81,52,21,30.19,30.01,11,2,14,0.00
2013-2-20,39,32,28,28,16,8,86,53,36,30.16,29.91,8,3,13,0.00
2013-2-21,35,32,30,34,30,21,98,90,64,29.92,29.54,13,2,18,0.00
2013-2-22,37,27,20,25,18,14,82,67,46,29.99,29.73,13,4,16,0.00
2013-2-23,49,31,17,25,19,13,86,62,33,29.98,29.81,6,1,8,0.00
2013-2-24,64,43,24,34,28,19,83,59,25,29.84,29.65,8,2,13,0.00
2013-2-25,42,38,33,36,33,30,99,83,62,29.73,29.35,14,5,23,0.00
2013-2-26,38,34,32,33,31,29,99,86,74,29.76,29.30,10,4,17,0.00
2013-2-27,41,35,32,31,28,24,85,73,58,29.96,29.73,12,5,18,0.00
2013-2-28,39,34,30,28,25,24,82,71,62,30.08,29.94,7,3,11,0.00
2013-3-1,33,31,28,26,20,16,77,64,51,30.15,30.02,9,4,16,0.00
2013-3-2,44,31,22,21,18,14,81,60,36,30.20,30.05,8,2,11,0.00
2013-3-3,62,45,26,30,23,18,76,46,20,30.04,29.58,11,3,17,0.00
2013-3-4,73,57,43,44,36,30,71,47,28,29.79,29.44,14,4,20,0.00
2013-3-5,48,39,31,36,23,13,96,56,29,30.20,29.78,15,6,24,0.00
2013-3-6,50,36,24,26,20,16,72,54,31,30.27,30.09,6,2,8,0.00
2013-3-7,68,51,31,29,21,10,74,38,10,30.10,29.95,10,3,13,0.00
2013-3-8,66,56,45,38,34,28,56,44,34,30.04,29.86,12,4,19,0.00
2013-3-9,69,60,56,59,47,35,99,64,43,29.87,29.49,13,5,23,0.00
2013-3-10,56,44,31,55,40,23,99,88,73,29.84,29.49,15,5,21,0.00
2013-3-11,50,36,28,26,20,8,75,55,20,29.90,29.80,11,4,17,0.00
2013-3-12,58,44,28,32,25,19,82,52,23,30.19,29.88,15,3,21,0.00
2013-3-13,55,42,30,26,19,11,69,42,18,30.34,30.19,6,1,9,0.00
2013-3-14,77,53,31,44,32,22,76,48,21,30.19,29.93,17,4,25,0.00
2013-3-15,82,65,47,48,45,40,78,50,27,29.95,29.60,15,5,23,0.00
2013-3-16,68,57,45,47,42,36,80,58,43,29.78,29.59,13,6,26,0.00
2013-3-17,45,42,39,43,40,36,99,94,72,29.77,29.55,11,4,16,0.00
2013-3-18,61,46,35,42,34,17,99,70,19,29.92,29.55,10,3,16,0.00
2013-3-19,59,43,29,33,23,7,86,53,14,30.13,29.88,11,2,18,0.00
2013-3-20,51,39,29,33,18,3,98,52,18,30.24,29.97,13,3,20,0.00
2013-3-21,43,36,33,32,19,2,91,54,19,29.97,29.66,10,5,16,0.00
2013-3-22,44,39,35,37,34,31,88,83,77,29.81,29.69,7,2,9,0.00
2013-3-23,42,40,37,42,38,35,99,94,86,29.80,29.59,8,4,12,0.00
2013-3-24,37,33,30,37,33,30,99,98,95,29.79,29.54,10,2,16,0.00
2013-3-25,38,32,24,22,18,14,71,59,42,30.21,29.99,18,6,23,0.00
2013-3-26,51,35,21,24,19,13,83,55,23,30.29,30.15,9,2,13,0.00
2013-3-27,63,46,26,27,20,9,74,43,12,30.15,29.98,11,2,22,0.00
2013-3-28,72,59,46,49,39,27,68,47,36,30.05,29.93,11,3,15,0.00
2013-3-29,75,61,52,55,51,47,95,71,45,30.03,29.93,9,2,12,0.00
2013-3-30,73,62,53,59,55,52,98,80,52,29.95,29.72,11,3,16,0.00
2013-3-31,73,60,47,56,45,32,99,64,24,29.86,29.72,9,2,16,0.00
2013-4-1,53,46,40,44,37,28,99,73,58,30.06,29.83,9,4,17,0.00
2013-4-2,42,39,36,37,34,28,93,81,56,30.13,30.04,8,4,13,0.00
2013-4-3,52,45,39,35,28,21,84,54,31,30.12,30.03,10,3,15,0.00
2013-4-4,64,51,40,37,32,23,78,51,23,30.03,29.92,9,2,12,0.00
2013-4-5,73,54,32,45,37,30,97,57,29,30.05,29.81,8,2,11,0.00
2013-4-6,77,65,56,50,44,35,59,47,33,29.81,29.63,21,6,33,0.00
2013-4-7,82,67,51,58,54,48,93,65,40,29.76,29.57,11,4,19,0.00
2013-4-8,76,69,63,60,58,55,83,68,55,29.63,29.56,15,5,24,0.00
2013-4-9,82,74,68,63,60,55,70,60,51,29.61,29.52,11,4,16,0.00
2013-4-10,74,43,35,60,41,33,99,93,61,29.78,29.57,12,5,19,0.00
2013-4-11,54,41,34,34,30,26,95,67,35,29.78,29.62,10,4,18,0.00
2013-4-12,61,46,34,36,31,26,85,58,32,29.89,29.67,11,2,15,0.00
2013-4-13,74,56,36,46,39,32,99,60,28,29.91,29.61,11,2,16,0.00
2013-4-14,83,70,58,60,47,37,88,49,22,29.62,29.38,15,5,25,0.00
2013-4-15,77,59,51,58,46,34,78,62,44,29.78,29.57,12,5,18,0.00
2013-4-16,61,52,48,51,47,42,96,84,70,29.88,29.73,8,4,17,0.00
2013-4-17,86,68,50,70,61,48,96,79,51,29.82,29.47,9,3,18,0.00
2013-4-18,64,48,39,63,41,25,99,80,55,29.90,29.37,13,6,18,0.00
2013-4-19,62,46,33,37,26,16,85,50,19,29.97,29.86,12,4,20,0.00
2013-4-20,72,53,35,38,34,26,97,56,18,30.04,29.92,7,1,11,0.00
2013-4-21,75,61,50,41,37,17,62,44,12,30.09,29.96,11,3,18,0.00
2013-4-22,74,64,48,46,41,37,73,45,28,30.02,29.74,10,2,15,0.00
2013-4-23,67,45,36,55,42,34,99,91,43,30.02,29.69,13,4,17,0.00
2013-4-24,59,45,32,36,30,20,96,61,25,30.16,30.00,10,2,20,0.00
2013-4-25,74,55,32,44,30,13,95,46,10,30.22,30.02,8,1,10,0.00
2013-4-26,61,53,50,51,46,32,99,80,33,30.15,29.95,9,3,13,0.00
2013-4-27,56,53,50,53,51,50,99,94,85,29.96,29.86,8,2,11,0.00
2013-4-28,79,63,50,56,52,49,99,71,40,29.89,29.71,6,1,8,0.00
2013-4-29,88,73,56,60,54,51,85,55,29,29.73,29.59,14,4,18,0.00
2013-4-30,88,75,61,58,52,42,80,47,20,29.71,29.62,13,3,21,0.00
2013-5-1,90,76,62,62,56,47,82,52,30,29.93,29.71,7,2,10,0.00
2013-5-2,62,44,33,58,41,32,99,89,82,30.21,29.91,9,5,19,0.00
2013-5-3,53,43,33,37,33,27,99,70,38,30.16,29.82,11,4,21,0.00
2013-5-4,53,42,35,40,38,33,99,85,53,29.89,29.71,8,2,12,0.00
2013-5-5,62,50,38,49,45,37,98,83,61,29.96,29.87,8,2,11,0.00
2013-5-6,64,54,47,53,50,46,97,84,65,29.98,29.89,6,1,8,0.00
2013-5-7,84,62,42,59,50,42,99,69,28,29.95,29.83,6,1,10,0.00
2013-5-8,85,67,53,62,57,52,96,73,38,29.95,29.73,8,2,18,0.00
2013-5-9,79,68,59,64,61,57,99,77,51,29.82,29.72,7,2,13,0.00
2013-5-10,73,64,52,64,57,50,99,80,50,29.93,29.77,8,2,15,0.00
2013-5-11,77,62,45,58,45,22,99,62,15,30.07,29.92,11,2,16,0.00
2013-5-12,70,61,48,51,37,20,87,47,16,30.15,30.01,5,1,11,0.00
2013-5-13,86,67,45,57,49,42,94,58,32,30.02,29.86,8,2,16,0.00
2013-5-14,91,78,64,61,54,50,73,45,30,29.88,29.78,11,4,21,0.00
2013-5-15,80,71,64,66,61,50,98,72,49,29.83,29.70,12,4,19,0.00
2013-5-16,80,68,61,65,62,60,98,82,54,29.75,29.68,4,1,8,0.00
2013-5-17,87,71,58,69,62,58,99,76,43,29.79,29.72,4,1,6,0.00
2013-5-18,91,78,64,74,69,62,96,77,54,29.78,29.62,6,2,11,0.00
2013-5-19,91,78,65,71,65,57,96,66,42,29.74,29.46,15,4,21,0.00
2013-5-20,80,69,62,71,65,59,99,88,69,29.67,29.52,12,3,19,0.00
2013-5-21,70,63,60,65,60,56,99,90,73,29.74,29.53,9,1,16,0.00
2013-5-22,80,67,56,58,56,51,99,72,41,29.81,29.65,8,2,14,0.00
2013-5-23,78,66,55,59,56,52,99,73,48,30.01,29.81,6,1,10,0.00
2013-5-24,83,69,57,62,56,51,90,66,45,30.13,29.98,8,3,12,0.00
2013-5-25,88,75,62,67,60,52,81,61,43,30.06,29.90,10,2,14,0.00
2013-5-26,87,77,67,68,65,62,92,68,48,29.96,29.81,14,3,17,0.00
2013-5-27,89,79,69,69,65,60,88,64,44,29.83,29.62,15,4,27,0.00
2013-5-28,86,79,75,68,65,64,76,64,50,29.71,29.60,18,5,24,0.00
2013-5-29,84,77,66,67,64,58,84,66,53,29.72,29.57,11,4,18,0.00
2013-5-30,80,68,62,70,66,61,99,92,69,29.69,29.56,15,3,24,0.00
2013-5-31,87,76,66,73,69,62,96,79,58,29.71,29.51,14,4,20,0.00
2013-6-1,81,71,63,68,61,53,99,74,40,29.87,29.53,10,3,14,0.00
2013-6-2,76,64,51,59,55,50,95,73,50,29.94,29.85,7,2,11,0.00
2013-6-3,84,66,48,61,55,48,99,71,39,29.92,29.74,6,1,8,0.00
2013-6-4,82,71,65,67,63,58,92,76,55,29.85,29.75,7,2,13,0.00
2013-6-5,85,72,65,70,65,62,99,79,53,29.83,29.73,10,2,14,0.00
2013-6-6,81,71,60,65,59,52,98,69,39,29.83,29.78,5,1,10,0.00
2013-6-7,84,69,54,62,54,45,99,64,28,29.87,29.78,8,1,12,0.00
2013-6-8,86,72,53,61,57,53,99,64,38,29.81,29.68,9,1,15,0.00
2013-6-9,88,75,65,68,62,54,95,68,32,29.77,29.68,8,1,11,0.00
2013-6-10,97,82,65,70,65,60,93,61,39,29.78,29.71,9,2,16,0.00
2013-6-11,97,86,74,71,67,61,83,56,31,29.84,29.74,10,4,18,0.00
2013-6-12,95,86,78,73,70,66,80,59,41,29.81,29.73,16,6,24,0.00
2013-6-13,95,85,72,71,66,60,83,55,38,29.92,29.79,4,2,8,0.00
2013-6-14,98,83,68,74,70,65,95,68,40,29.88,29.76,7,1,13,0.00
2013-6-15,93,79,70,74,70,68,96,76,50,29.89,29.78,15,2,21,0.00
2013-6-16,94,80,69,75,71,63,98,75,46,29.87,29.76,8,2,14,0.00
2013-6-17,83,72,68,70,68,65,98,87,63,29.85,29.74,7,1,11,0.00
2013-6-18,93,78,65,70,65,60,99,69,35,29.90,29.82,4,1,8,0.00
2013-6-19,91,78,63,71,64,61,99,67,39,29.91,29.83,5,1,8,0.00
2013-6-20,95,82,68,73,69,65,95,68,45,29.92,29.81,8,2,16,0.00
2013-6-21,96,89,69,73,70,66,90,57,42,29.91,29.83,11,4,21,0.00
2013-6-22,94,88,78,72,70,68,77,55,46,29.91,29.77,9,2,15,0.00
2013-6-23,95,85,76,72,70,67,84,61,42,29.84,29.73,11,3,18,0.00
2013-6-24,95,85,75,71,69,65,81,61,39,29.88,29.77,11,3,21,0.00
2013-6-25,92,84,76,71,69,66,81,62,44,29.83,29.67,12,4,23,0.00
2013-6-26,100,88,79,76,71,68,79,59,40,29.79,29.67,13,4,21,0.00
2013-6-27,104,90,74,76,74,70,94,61,35,29.83,29.71,6,2,9,0.00
2013-6-28,98,86,74,76,66,56,88,54,29,29.84,29.70,7,2,15,0.00
2013-6-29,92,80,64,62,54,44,88,47,20,29.78,29.68,13,3,25,0.00
2013-6-30,85,74,63,60,58,54,81,58,36,29.86,29.73,8,2,11,0.00
2013-7-1,86,74,61,60,55,44,84,55,24,29.94,29.85,8,2,14,0.00
2013-7-2,88,73,54,60,52,42,95,56,21,29.98,29.90,6,1,9,0.00
2013-7-3,90,73,56,64,55,47,97,59,23,29.98,29.86,5,1,8,0.00
2013-7-4,95,78,60,61,57,52,85,52,25,29.93,29.81,7,1,13,0.00
2013-7-5,95,79,60,64,60,56,90,55,31,29.89,29.78,8,2,13,0.00
2013-7-6,92,77,68,71,64,58,86,64,40,29.90,29.78,6,1,9,0.00
2013-7-7,98,83,72,68,64,60,78,56,29,29.91,29.82,8,2,14,0.00
2013-7-8,99,86,70,70,67,64,83,56,33,29.96,29.87,9,2,12,0.00
2013-7-9,101,88,75,71,70,66,85,57,33,29.94,29.80,10,3,15,0.00
2013-7-10,106,94,81,75,69,65,75,47,29,29.88,29.77,4,1,8,0.00
2013-7-11,99,86,75,75,69,60,88,59,29,29.89,29.78,6,2,9,0.00
2013-7-12,101,86,73,70,66,60,71,53,35,29.90,29.82,6,2,10,0.00
2013-7-13,99,83,68,68,62,57,84,52,32,29.92,29.81,5,2,9,0.00
2013-7-14,93,82,70,62,57,50,70,45,24,29.93,29.83,8,2,16,0.00
2013-7-15,93,78,68,75,65,56,90,65,39,30.04,29.92,8,2,13,0.00
2013-7-16,98,80,70,74,70,65,97,74,35,30.13,30.03,9,1,13,0.00
2013-7-17,100,84,70,74,68,63,96,64,31,30.18,30.05,4,1,11,0.00
2013-7-18,102,86,69,73,67,61,96,59,29,30.08,29.88,6,1,10,0.00
2013-7-19,104,87,72,71,67,58,90,56,23,29.91,29.75,7,1,10,0.00
2013-7-20,100,84,69,74,69,65,99,64,34,29.86,29.68,9,2,15,0.00
2013-7-21,88,76,69,77,71,69,99,88,59,29.84,29.70,7,1,13,0.00
2013-7-22,82,76,74,76,74,70,97,94,66,29.91,29.70,7,1,8,0.00
2013-7-23,102,95,89,73,72,68,59,48,40,29.97,29.77,5,3,8,0.00
2013-7-24,94,84,70,70,68,64,91,61,42,29.86,29.65,6,1,10,0.00
2013-7-25,95,79,64,72,68,64,99,72,41,30.07,29.81,4,1,8,0.00
2013-7-26,86,74,68,74,70,67,99,87,59,30.03,29.79,7,1,11,1.77
2013-7-27,87,74,63,68,61,54,99,68,33,30.02,29.82,5,1,8,0.00
2013-7-28,77,69,64,65,62,59,92,81,60,30.06,29.82,4,1,5,0.01
2013-7-29,91,78,68,76,70,63,96,78,57,30.04,29.79,8,2,16,0.51
2013-7-30,93,80,71,76,73,70,99,80,50,29.94,29.78,11,2,14,0.52
2013-7-31,95,82,72,76,72,67,98,75,43,30.03,29.83,4,1,7,0.00
2013-8-1,79,70,68,75,68,67,97,95,77,30.01,29.89,2,0,2,0.00
2013-8-2,92,82,77,79,76,72,95,82,58,29.86,29.68,7,1,10,0.05
2013-8-3,88,74,70,77,66,-100,96,82,61,29.98,29.67,8,-30,11,0.29
2013-8-4,77,74,72,76,72,-100,99,96,92,29.99,29.84,6,-8,0,1.36
2013-8-5,97,82,72,80,76,71,99,83,58,29.90,29.75,9,3,0,3.31
2013-8-6,96,83,72,79,75,70,99,80,57,29.86,29.77,17,3,0,0.09
2013-8-7,85,79,73,78,75,72,99,88,78,29.95,29.80,9,2,0,0.24
2013-8-8,86,77,70,76,73,70,99,89,69,29.99,29.85,5,2,0,4.61
2013-8-9,84,73,68,74,69,-100,99,90,70,30.00,29.90,7,-9,0,0.05
2013-8-10,88,76,68,71,68,66,99,80,52,30.01,29.05,8,2,2,0.00
2013-8-11,96,80,69,75,70,66,95,76,43,29.96,28.85,5,1,7,0.00
2013-8-12,90,77,71,75,72,69,99,86,52,29.97,28.83,6,1,8,2.02
2013-8-13,85,76,68,77,70,61,99,83,60,29.96,28.84,4,1,9,0.01
2013-8-14,86,73,62,65,61,56,99,69,42,30.03,28.96,8,1,11,0.00
2013-8-15,86,72,55,63,58,55,99,65,36,30.00,28.91,6,1,8,0.00
2013-8-16,86,73,62,61,59,55,88,64,40,30.01,28.97,6,1,7,0.54
2013-8-17,88,71,57,65,59,55,99,70,40,30.03,29.10,5,1,8,0.00
2013-8-18,91,74,60,67,62,58,99,72,37,30.01,29.05,5,1,7,0.16
2013-8-19,93,76,61,69,64,58,99,71,33,29.97,28.88,7,1,8,0.00
2013-8-20,93,78,63,69,64,60,99,69,35,29.90,28.95,7,1,10,0.00
2013-8-21,97,79,64,71,66,62,99,70,34,29.95,28.96,9,2,12,0.00
2013-8-22,98,81,68,74,69,66,96,70,37,29.97,28.87,7,1,8,0.00
2013-8-23,98,82,68,72,69,67,99,69,39,29.94,28.87,7,1,6,0.00
2013-8-24,97,83,70,75,70,68,96,68,40,30.00,28.92,6,1,8,0.00
2013-8-25,100,84,71,74,71,68,92,66,38,30.06,29.06,8,1,8,0.00
2013-8-26,97,86,72,74,70,67,96,62,40,30.06,28.98,8,2,12,0.08
2013-8-27,96,81,68,73,68,63,97,69,34,29.97,28.93,9,2,13,0.00
2013-8-28,98,83,69,73,70,66,96,68,38,29.92,28.89,11,2,15,0.00
2013-8-29,100,84,71,75,71,65,95,68,34,29.92,28.85,8,1,11,0.00
2013-8-30,102,86,73,75,71,67,95,66,34,29.85,28.74,9,2,15,0.16
2013-8-31,104,86,73,75,71,67,95,66,33,29.67,28.72,8,1,11,0.00
2013-9-1,93,80,72,74,71,68,95,74,44,29.79,28.68,8,1,14,0.56
2013-9-2,92,78,64,72,64,59,96,66,34,29.91,28.88,8,1,9,0.00
2013-9-3,96,76,59,68,61,55,99,67,30,30.03,29.86,4,0,5,0.00
2013-9-4,98,76,58,67,62,57,99,67,29,30.06,29.84,4,0,7,0.13
2013-9-5,97,77,60,66,62,59,98,65,31,30.19,29.96,4,1,6,0.00
2013-9-6,97,78,62,67,64,60,95,65,33,30.08,29.88,5,1,7,0.00
2013-9-7,102,82,65,71,66,62,93,64,31,29.93,29.76,8,1,11,0.00
2013-9-8,101,84,69,70,67,64,94,61,31,30.05,29.75,7,1,8,0.00
2013-9-9,97,78,67,71,68,66,97,73,37,29.95,29.79,11,1,2,0.00
2013-9-10,98,81,67,69,65,60,94,64,29,30.18,29.86,9,2,14,0.05
2013-9-11,99,82,64,71,66,62,99,64,30,30.28,29.92,8,1,11,0.73
2013-9-12,95,79,68,73,69,67,98,74,42,30.19,29.88,8,1,8,1.15
2013-9-13,87,73,59,67,54,46,84,55,25,30.27,29.89,7,1,11,0.62
2013-9-14,88,69,50,59,53,49,98,61,30,30.16,29.84,7,1,11,0.00
2013-9-15,95,76,64,67,58,52,84,56,34,30.14,29.86,9,2,15,0.00
2013-9-16,78,72,68,72,69,66,99,92,78,30.24,29.93,4,1,7,1.69
2013-9-17,81,73,68,72,68,66,98,86,71,30.29,29.86,5,1,6,0.45
2013-9-18,95,80,70,71,68,64,93,68,39,30.12,29.77,14,2,17,0.00
2013-9-19,95,79,70,84,68,66,92,71,42,30.13,29.71,20,2,27,0.47
2013-9-20,76,68,54,69,60,52,99,80,47,30.31,29.81,7,1,11,0.66
2013-9-21,86,64,47,59,51,44,99,70,28,30.30,29.87,4,1,7,0.00
2013-9-22,84,64,47,60,50,44,99,68,27,30.23,29.91,6,1,9,0.01
2013-9-23,86,67,51,57,53,50,98,66,33,30.14,29.78,8,1,13,0.00
2013-9-24,82,70,61,58,56,54,84,62,40,30.22,29.80,8,2,11,0.23
2013-9-25,88,69,54,62,58,53,99,73,35,30.17,29.81,4,1,8,0.00
2013-9-26,94,74,56,72,60,56,99,65,31,30.07,29.69,7,2,14,0.53
2013-9-27,92,78,65,62,60,56,84,56,31,30.18,29.94,11,2,16,0.00
2013-9-28,78,68,57,69,62,57,99,83,61,30.43,29.93,9,2,18,0.94
2013-9-29,83,62,52,61,54,50,99,81,36,30.38,30.09,4,0,8,0.03
2013-9-30,86,66,52,66,58,51,99,80,41,30.21,29.86,4,1,10,0.00
2013-10-1,91,75,64,72,66,63,99,78,41,30.13,29.79,6,1,11,0.00
2013-10-2,90,75,65,74,68,65,99,79,44,30.19,30.00,8,1,12,0.00
2013-10-3,90,78,70,70,68,67,92,73,47,30.19,29.93,11,2,20,0.00
2013-10-4,90,79,72,71,68,65,88,70,47,30.09,29.80,10,3,17,0.00
2013-10-5,76,58,47,68,49,39,99,76,35,30.35,29.98,12,2,21,0.90
2013-10-6,69,55,42,48,42,38,94,65,33,30.40,30.18,9,2,16,0.00
2013-10-7,81,58,41,50,43,32,99,68,18,30.55,30.22,5,1,7,0.00
2013-10-8,80,60,44,58,47,43,99,69,30,30.51,30.15,8,1,11,0.00
2013-10-9,83,61,45,54,49,44,99,71,28,30.52,30.16,5,1,8,0.00
2013-10-10,84,62,49,59,53,48,99,76,37,30.46,30.03,7,1,11,0.00
2013-10-11,82,69,59,67,61,55,92,77,57,30.15,29.90,11,2,18,0.00
2013-10-12,78,65,54,66,55,47,99,73,35,30.54,29.99,7,2,17,0.76
2013-10-13,75,61,55,52,49,46,82,66,42,30.67,30.39,7,2,12,0.05
2013-10-14,64,62,59,63,54,46,96,77,59,30.50,30.10,8,2,15,0.33
2013-10-15,66,58,51,65,53,45,99,83,58,30.39,30.07,6,2,12,0.26
2013-10-16,63,52,40,47,42,39,99,72,42,30.60,30.30,6,1,11,0.01
2013-10-17,69,53,42,48,44,39,99,76,34,30.51,30.22,7,1,11,0.00
2013-10-18,56,47,40,48,43,39,99,87,62,30.57,30.28,7,1,11,0.18
2013-10-19,66,49,36,43,38,31,99,69,28,30.68,30.36,8,2,11,0.00
2013-10-20,74,56,44,46,40,27,87,58,18,30.46,30.09,11,2,18,0.00
2013-10-21,65,51,38,48,40,31,97,69,30,30.54,30.18,7,1,12,0.00
2013-10-22,73,53,36,46,39,31,99,66,22,30.58,30.14,8,2,14,0.00
2013-10-23,68,49,35,43,38,32,96,69,30,30.68,30.22,4,1,8,0.00
2013-10-24,60,48,34,38,32,23,86,57,26,30.83,30.67,7,2,14,0.00
2013-10-25,65,45,29,38,28,14,99,59,15,31.02,30.54,6,1,12,0.00
2013-10-26,70,54,45,51,44,34,93,69,49,30.62,30.37,7,2,11,0.00
2013-10-27,74,50,32,43,31,12,97,59,10,30.58,30.19,3,0,5,0.00
2013-10-28,77,57,39,58,50,38,99,81,41,30.58,30.22,8,1,9,0.00
2013-10-29,69,64,58,67,63,55,99,94,83,30.39,30.12,11,2,16,0.73
2013-10-30,69,67,65,67,64,61,99,91,85,30.25,29.96,8,2,16,0.44
2013-10-31,65,59,49,63,56,45,99,90,70,30.14,29.78,10,2,18,0.39
2013-11-1,72,54,40,48,42,35,99,68,27,30.36,30.03,8,2,14,0.01
2013-11-2,63,48,36,41,36,28,94,67,29,30.73,30.25,9,2,15,0.00
2013-11-3,66,56,35,41,37,31,94,51,29,30.67,30.23,8,3,16,0.00
2013-11-4,69,58,52,53,47,40,85,68,50,30.48,30.29,14,4,20,0.00
2013-11-5,69,60,56,66,58,53,99,94,83,30.49,30.14,7,2,11,0.67
2013-11-6,64,44,31,62,39,30,98,82,51,30.73,30.16,9,3,16,0.59
2013-11-7,70,44,29,43,34,27,99,75,20,31.03,30.66,6,1,9,0.00
2013-11-8,70,53,34,46,34,21,99,58,16,30.82,30.32,15,4,22,0.00
2013-11-9,73,57,46,46,42,38,81,59,30,30.63,30.35,11,2,14,0.00
2013-11-10,76,54,42,46,40,34,99,66,23,30.85,30.50,8,1,11,0.00
2013-11-11,65,54,41,53,46,31,92,77,57,30.87,30.55,13,2,20,0.00
2013-11-12,43,32,20,31,14,3,75,50,20,31.39,30.88,14,3,21,0.00
2013-11-13,53,40,20,22,16,7,83,43,16,31.27,30.65,11,4,17,0.00
2013-11-14,54,44,34,28,21,14,57,42,20,30.83,30.34,15,4,21,0.00
2013-11-15,66,53,42,50,42,28,93,69,44,30.52,30.10,8,3,16,0.13
2013-11-16,75,65,53,64,58,50,93,79,58,30.18,29.73,16,7,24,0.16
2013-11-17,74,66,50,65,36,8,82,41,10,30.42,29.72,18,7,24,0.00
2013-11-18,68,50,34,40,28,10,91,48,11,30.72,30.41,7,1,8,0.00
2013-11-19,66,53,39,32,19,7,72,30,11,30.73,30.37,8,2,11,0.00
2013-11-20,59,54,46,39,26,9,49,34,17,30.49,30.19,12,3,21,0.01
2013-11-21,58,50,34,54,46,32,99,88,50,30.74,30.28,11,2,19,0.64
2013-11-22,35,32,30,32,27,25,95,82,72,31.19,30.73,14,5,18,0.00
2013-11-23,42,32,22,27,17,5,82,55,36,31.37,31.06,11,4,19,0.00
2013-11-24,33,26,18,14,8,1,62,46,26,31.42,30.75,6,2,10,0.00
2013-11-25,38,34,30,29,23,13,79,63,43,30.90,30.55,8,2,11,0.00
2013-11-26,48,36,26,29,23,11,85,61,41,30.94,30.57,13,3,22,0.00
2013-11-27,44,29,18,12,7,-3,67,43,17,31.13,30.68,7,2,9,0.00
2013-11-28,57,38,27,27,19,12,82,50,25,30.89,30.55,9,2,15,0.00
2013-11-29,57,41,24,31,22,9,91,53,16,31.08,30.67,8,2,12,0.00
2013-11-30,61,47,38,44,36,25,99,67,50,30.83,30.41,14,3,21,0.00
2013-12-1,55,45,32,50,43,32,99,94,79,30.69,30.32,3,0,5,0.00
2013-12-2,63,50,39,54,46,38,99,87,57,30.34,30.01,10,1,14,0.00
2013-12-3,76,56,41,54,47,41,99,75,36,30.16,29.83,6,1,9,0.01
2013-12-4,56,42,29,51,38,20,99,87,71,30.46,29.93,11,4,17,0.00
2013-12-5,29,24,21,20,10,5,73,55,44,30.93,30.46,10,5,15,0.00
2013-12-6,23,19,12,14,7,-2,81,61,39,31.23,30.80,10,5,16,0.00
2013-12-7,24,17,8,8,0,-5,58,48,32,31.37,30.76,9,3,11,0.00
2013-12-8,29,25,21,27,19,8,91,78,57,30.82,30.50,9,3,13,0.00
2013-12-9,26,22,16,20,13,8,85,71,49,31.00,30.61,8,3,11,0.00
2013-12-10,38,21,6,17,10,-1,81,63,35,31.12,30.63,8,2,10,0.06
2013-12-11,39,24,12,20,11,5,82,62,30,31.20,30.73,11,2,17,0.00
2013-12-12,43,32,11,25,19,5,75,59,45,31.24,30.62,11,3,18,0.00
2013-12-13,38,36,31,35,30,20,93,79,62,30.73,30.21,9,3,15,0.23
2013-12-14,37,32,21,37,27,16,99,83,70,30.79,30.29,11,3,18,0.02
2013-12-15,53,35,18,33,24,13,85,67,41,30.90,30.45,11,2,16,0.01
2013-12-16,65,46,32,35,30,28,87,56,25,30.74,30.33,10,3,14,0.00
2013-12-17,60,40,26,36,28,22,96,68,27,30.84,30.50,10,1,15,0.00
2013-12-18,67,48,24,39,30,21,93,56,28,30.81,30.23,16,4,24,0.00
2013-12-19,62,58,54,55,49,39,79,70,52,30.37,29.99,15,6,23,0.00
2013-12-20,65,39,28,58,33,22,93,81,69,30.50,29.97,11,4,17,0.01
2013-12-21,32,31,28,32,30,25,99,95,89,30.47,30.00,0,0,0,0.00
2013-12-22,32,29,26,32,25,20,99,85,76,30.89,30.18,0,0,0,0.00
2013-12-23,27,21,14,20,14,9,83,76,62,31.16,30.88,0,0,0,0.00
2013-12-24,44,27,12,32,19,6,82,72,61,31.25,30.58,4,0,5,0.09
2013-12-25,45,34,24,36,28,20,87,79,58,30.96,30.74,5,1,8,0.09
2013-12-26,51,34,23,38,27,19,98,76,46,31.01,30.69,11,2,15,0.00
2013-12-27,61,42,25,34,28,20,87,62,30,31.07,30.66,9,2,14,0.00
2013-12-28,60,43,27,37,29,23,91,62,28,30.81,30.27,11,2,15,0.00
2013-12-29,45,29,18,37,17,-3,77,61,39,30.95,30.29,12,5,18,0.00
2013-12-30,38,23,13,14,6,-3,61,49,28,31.01,30.72,5,2,8,0.00
2013-12-31,56,37,18,26,18,11,83,51,18,31.00,30.55,11,3,16,0.00
2014-1-1,57,38,15,30,22,10,87,56,29,30.84,30.34,15,4,20,0.00
2014-1-2,25,16,7,10,2,-5,81,57,28,31.18,30.82,11,2,19,0.00